Observation data for Northwest Lubbock on 07/18/2019      Previous  Date  Next       Current Mesonet Observations  Soil Data  Daily Summary Page  Observations in Plain Language
KLBW 180500Z 18012KT 28/15 A2997 RMK A01 T02830147  RH  045%=      5-min Rain = 0
KLBW 180505Z 19012G17KT 28/15 A2997 RMK A01 T02800145  RH  046%=      5-min Rain = 0
KLBW 180510Z 19009KT 28/15 A2998 RMK A01 T02780145  RH  046%=      5-min Rain = 0
KLBW 180515Z 18009G16KT 28/15 A2998 RMK A01 T02750145  RH  047%=      5-min Rain = 0
KLBW 180520Z 19010KT 27/14 A2997 RMK A01 T02730143  RH  047%=      5-min Rain = 0
KLBW 180525Z 18010KT 27/14 A2998 RMK A01 T02720143  RH  047%=      5-min Rain = 0
KLBW 180530Z 19010G15KT 27/14 A2998 RMK A01 T02710143  RH  047%=      5-min Rain = 0
KLBW 180535Z 19011KT 27/14 A2998 RMK A01 T02700143  RH  047%=      5-min Rain = 0
KLBW 180540Z 19009G14KT 27/14 A2998 RMK A01 T02680143  RH  048%=      5-min Rain = 0
KLBW 180545Z 18010KT 27/14 A2998 RMK A01 T02660144  RH  049%=      5-min Rain = 0
KLBW 180550Z 18010KT 26/15 A2998 RMK A01 T02640145  RH  050%=      5-min Rain = 0
KLBW 180555Z 17010G15KT 26/15 A2998 RMK A01 T02640146  RH  050%=      5-min Rain = 0
KLBW 180600Z 18008G13KT 26/15 A2998 RMK A01 T02620146  RH  051%=      5-min Rain = 0
KLBW 180605Z 17009KT 26/15 A2998 RMK A01 T02620147  RH  051%=      5-min Rain = 0
KLBW 180610Z 18010KT 26/15 A2998 RMK A01 T02620148  RH  052%=      5-min Rain = 0
KLBW 180615Z 18009G14KT 26/15 A2998 RMK A01 T02620149  RH  052%=      5-min Rain = 0
KLBW 180620Z 18010KT 26/15 A2998 RMK A01 T02610149  RH  052%=      5-min Rain = 0
KLBW 180625Z 17009KT 26/15 A2998 RMK A01 T02610149  RH  053%=      5-min Rain = 0
KLBW 180630Z 17009KT 26/15 A2998 RMK A01 T02610150  RH  053%=      5-min Rain = 0
KLBW 180635Z 17010G15KT 26/15 A2998 RMK A01 T02600151  RH  053%=      5-min Rain = 0
KLBW 180640Z 18011KT 26/15 A2998 RMK A01 T02590151  RH  054%=      5-min Rain = 0
KLBW 180645Z 18010KT 26/15 A2998 RMK A01 T02590152  RH  054%=      5-min Rain = 0
KLBW 180650Z 17010KT 26/15 A2998 RMK A01 T02590152  RH  054%=      5-min Rain = 0
KLBW 180655Z 17010KT 26/15 A2998 RMK A01 T02590152  RH  054%=      5-min Rain = 0
KLBW 180700Z 17010KT 26/15 A2998 RMK A01 T02580152  RH  054%=      5-min Rain = 0
KLBW 180705Z 18008G14KT 26/15 A2998 RMK A01 T02570153  RH  055%=      5-min Rain = 0
KLBW 180710Z 17008G14KT 26/15 A2998 RMK A01 T02560153  RH  055%=      5-min Rain = 0
KLBW 180715Z 17009KT 26/15 A2998 RMK A01 T02560154  RH  056%=      5-min Rain = 0
KLBW 180720Z 17007G14KT 26/15 A2998 RMK A01 T02560154  RH  056%=      5-min Rain = 0
KLBW 180725Z 17008KT 26/15 A2999 RMK A01 T02560154  RH  056%=      5-min Rain = 0
KLBW 180730Z 17007KT 26/15 A2999 RMK A01 T02550154  RH  056%=      5-min Rain = 0
KLBW 180735Z 18008G13KT 26/16 A2999 RMK A01 T02560155  RH  056%=      5-min Rain = 0
KLBW 180740Z 18008KT 26/16 A2999 RMK A01 T02560155  RH  056%=      5-min Rain = 0
KLBW 180745Z 18008KT 26/16 A2999 RMK A01 T02550155  RH  056%=      5-min Rain = 0
KLBW 180750Z 18008KT 26/16 A2999 RMK A01 T02560155  RH  056%=      5-min Rain = 0
KLBW 180755Z 18009KT 26/16 A2999 RMK A01 T02550155  RH  057%=      5-min Rain = 0
KLBW 180800Z 18008G13KT 26/16 A2999 RMK A01 T02550155  RH  056%=      5-min Rain = 0
KLBW 180805Z 18007KT 25/16 A2999 RMK A01 T02530155  RH  057%=      5-min Rain = 0
KLBW 180810Z 18009KT 25/16 A2999 RMK A01 T02530155  RH  057%=      5-min Rain = 0
KLBW 180815Z 18008KT 25/16 A2999 RMK A01 T02540155  RH  057%=      5-min Rain = 0
KLBW 180820Z 18008G14KT 25/16 A2999 RMK A01 T02530155  RH  057%=      5-min Rain = 0
KLBW 180825Z 19008KT 25/16 A2999 RMK A01 T02540155  RH  057%=      5-min Rain = 0
KLBW 180830Z 19008KT 25/15 A30 RMK A01 T02540154  RH  057%=      5-min Rain = 0
KLBW 180835Z 19010KT 26/15 A30 RMK A01 T02550154  RH  056%=      5-min Rain = 0
KLBW 180840Z 19008KT 25/15 A30 RMK A01 T02540154  RH  056%=      5-min Rain = 0
KLBW 180845Z 19008KT 25/15 A30 RMK A01 T02530153  RH  056%=      5-min Rain = 0
KLBW 180850Z 19008KT 25/15 A30 RMK A01 T02530153  RH  057%=      5-min Rain = 0
KLBW 180855Z 19010KT 25/15 A30 RMK A01 T02540153  RH  056%=      5-min Rain = 0
KLBW 180900Z 18008KT 25/15 A30 RMK A01 T02540153  RH  056%=      5-min Rain = 0
KLBW 180905Z 18008G13KT 25/15 A30 RMK A01 T02530152  RH  056%=      5-min Rain = 0
KLBW 180910Z 18010KT 25/15 A30 RMK A01 T02530152  RH  056%=      5-min Rain = 0
KLBW 180915Z 18008KT 25/15 A2999 RMK A01 T02530152  RH  056%=      5-min Rain = 0
KLBW 180920Z 18009KT 25/15 A2999 RMK A01 T02530152  RH  056%=      5-min Rain = 0
KLBW 180925Z 18009G14KT 25/15 A30 RMK A01 T02530151  RH  056%=      5-min Rain = 0
KLBW 180930Z 17008G13KT 25/15 A30 RMK A01 T02530151  RH  056%=      5-min Rain = 0
KLBW 180935Z 18008G13KT 25/15 A30 RMK A01 T02520151  RH  056%=      5-min Rain = 0
KLBW 180940Z 17010G16KT 25/15 A30 RMK A01 T02520150  RH  056%=      5-min Rain = 0
KLBW 180945Z 17009G15KT 25/15 A30 RMK A01 T02520150  RH  055%=      5-min Rain = 0
KLBW 180950Z 17009G14KT 25/15 A30 RMK A01 T02520150  RH  055%=      5-min Rain = 0
KLBW 180955Z 17009KT 25/15 A30 RMK A01 T02510149  RH  056%=      5-min Rain = 0
KLBW 181000Z 17009G14KT 25/15 A30 RMK A01 T02500149  RH  056%=      5-min Rain = 0
KLBW 181005Z 17007G12KT 25/15 A30 RMK A01 T02490149  RH  056%=      5-min Rain = 0
KLBW 181010Z 17007KT 25/15 A30 RMK A01 T02470149  RH  057%=      5-min Rain = 0
KLBW 181015Z 17008KT 25/15 A30 RMK A01 T02460149  RH  057%=      5-min Rain = 0
KLBW 181020Z 17009KT 25/15 A30 RMK A01 T02450148  RH  057%=      5-min Rain = 0
KLBW 181025Z 16008KT 25/15 A30 RMK A01 T02450148  RH  057%=      5-min Rain = 0
KLBW 181030Z 17009KT 24/15 A30 RMK A01 T02440148  RH  057%=      5-min Rain = 0
KLBW 181035Z 17011KT 25/15 A30 RMK A01 T02450148  RH  057%=      5-min Rain = 0
KLBW 181040Z 17012G18KT 25/15 A2999 RMK A01 T02450148  RH  057%=      5-min Rain = 0
KLBW 181045Z 17010KT 25/15 A2999 RMK A01 T02450148  RH  057%=      5-min Rain = 0
KLBW 181050Z 17011G17KT 24/15 A2999 RMK A01 T02440148  RH  057%=      5-min Rain = 0
KLBW 181055Z 16011G16KT 24/15 A2999 RMK A01 T02420147  RH  058%=      5-min Rain = 0
KLBW 181100Z 17011KT 24/15 A2999 RMK A01 T02420147  RH  058%=      5-min Rain = 0
KLBW 181105Z 17012G17KT 24/15 A2999 RMK A01 T02420147  RH  058%=      5-min Rain = 0
KLBW 181110Z 17010G21KT 24/15 A2999 RMK A01 T02410147  RH  058%=      5-min Rain = 0
KLBW 181115Z 17013G19KT 24/15 A2999 RMK A01 T02410148  RH  058%=      5-min Rain = 0
KLBW 181120Z 17012KT 24/15 A2999 RMK A01 T02410148  RH  058%=      5-min Rain = 0
KLBW 181125Z 17010G16KT 24/15 A2999 RMK A01 T02400148  RH  059%=      5-min Rain = 0
KLBW 181130Z 17012G19KT 24/15 A2999 RMK A01 T02400148  RH  059%=      5-min Rain = 0
KLBW 181135Z 17013G19KT 24/15 A2999 RMK A01 T02410148  RH  059%=      5-min Rain = 0
KLBW 181140Z 17012G17KT 24/15 A2999 RMK A01 T02400148  RH  059%=      5-min Rain = 0
KLBW 181145Z 17012G19KT 24/15 A2999 RMK A01 T02400148  RH  059%=      5-min Rain = 0
KLBW 181200Z 17014G22KT 24/15 A2999 RMK A01 T02420149  RH  059%=      5-min Rain = 0
KLBW 181205Z 18014G21KT 24/15 A2999 RMK A01 T02430149  RH  058%=      5-min Rain = 0
KLBW 181210Z 17013G19KT 24/15 A2999 RMK A01 T02430149  RH  058%=      5-min Rain = 0
KLBW 181215Z 18014G19KT 25/15 A2999 RMK A01 T02450149  RH  058%=      5-min Rain = 0
KLBW 181220Z 18013G18KT 25/15 A30 RMK A01 T02450149  RH  057%=      5-min Rain = 0
KLBW 181225Z 17013G18KT 25/15 A2999 RMK A01 T02460149  RH  057%=      5-min Rain = 0
KLBW 181230Z 18013G19KT 25/15 A2999 RMK A01 T02470149  RH  057%=      5-min Rain = 0
KLBW 181235Z 18013G21KT 25/15 A2999 RMK A01 T02470149  RH  057%=      5-min Rain = 0
KLBW 181240Z 18012G18KT 25/15 A2999 RMK A01 T02470150  RH  057%=      5-min Rain = 0
KLBW 181245Z 18014G19KT 25/15 A2999 RMK A01 T02480150  RH  057%=      5-min Rain = 0
KLBW 181250Z 18013G20KT 25/15 A2999 RMK A01 T02490150  RH  057%=      5-min Rain = 0
KLBW 181255Z 18013G19KT 25/15 A2999 RMK A01 T02500150  RH  056%=      5-min Rain = 0
KLBW 181300Z 18013G19KT 25/15 A2999 RMK A01 T02510151  RH  056%=      5-min Rain = 0
KLBW 181305Z 18014G22KT 25/15 A2999 RMK A01 T02520151  RH  056%=      5-min Rain = 0
KLBW 181310Z 18014G20KT 25/15 A2999 RMK A01 T02540151  RH  056%=      5-min Rain = 0
KLBW 181315Z 18014G24KT 26/15 A2999 RMK A01 T02550152  RH  055%=      5-min Rain = 0
KLBW 181320Z 18015G22KT 26/15 A2999 RMK A01 T02560152  RH  055%=      5-min Rain = 0
KLBW 181325Z 19014G19KT 26/15 A2999 RMK A01 T02570152  RH  055%=      5-min Rain = 0
KLBW 181330Z 19013G18KT 26/15 A2999 RMK A01 T02600153  RH  054%=      5-min Rain = 0
KLBW 181335Z 19014G22KT 26/15 A30 RMK A01 T02610153  RH  054%=      5-min Rain = 0
KLBW 181340Z 20012G18KT 26/15 A30 RMK A01 T02630154  RH  053%=      5-min Rain = 0
KLBW 181345Z 19011G18KT 27/15 A30 RMK A01 T02650154  RH  053%=      5-min Rain = 0
KLBW 181350Z 19015G20KT 27/15 A30 RMK A01 T02660153  RH  052%=      5-min Rain = 0
KLBW 181355Z 19012G17KT 27/15 A2999 RMK A01 T02680154  RH  052%=      5-min Rain = 0
KLBW 181400Z 18014G20KT 27/15 A30 RMK A01 T02700153  RH  051%=      5-min Rain = 0
KLBW 181405Z 19011G16KT 27/16 A2999 RMK A01 T02740155  RH  050%=      5-min Rain = 0
KLBW 181410Z 20013G18KT 28/15 A2999 RMK A01 T02760154  RH  049%=      5-min Rain = 0
KLBW 181415Z 19012G18KT 28/15 A2999 RMK A01 T02760154  RH  049%=      5-min Rain = 0
KLBW 181420Z 19012G17KT 28/16 A2999 RMK A01 T02810155  RH  048%=      5-min Rain = 0
KLBW 181425Z 19013G18KT 28/15 A2999 RMK A01 T02800153  RH  048%=      5-min Rain = 0
KLBW 181430Z 19014G19KT 28/15 A2999 RMK A01 T02800153  RH  048%=      5-min Rain = 0
KLBW 181435Z 18015KT 28/15 A2999 RMK A01 T02800153  RH  048%=      5-min Rain = 0
KLBW 181440Z 18013G18KT 29/16 A2999 RMK A01 T02850155  RH  047%=      5-min Rain = 0
KLBW 181445Z 18012G17KT 29/16 A2999 RMK A01 T02860155  RH  047%=      5-min Rain = 0
KLBW 181450Z 19015KT 29/15 A2999 RMK A01 T02880154  RH  046%=      5-min Rain = 0
KLBW 181455Z 19012KT 29/16 A2999 RMK A01 T02890155  RH  046%=      5-min Rain = 0
KLBW 181500Z 18014G19KT 29/15 A2999 RMK A01 T02900154  RH  046%=      5-min Rain = 0
KLBW 181505Z 18013KT 29/16 A2999 RMK A01 T02930155  RH  045%=      5-min Rain = 0
KLBW 181510Z 19013KT 29/16 A2999 RMK A01 T02930155  RH  045%=      5-min Rain = 0
KLBW 181515Z 18013G19KT 30/16 A2999 RMK A01 T02950155  RH  045%=      5-min Rain = 0
KLBW 181520Z 18013G19KT 30/16 A2999 RMK A01 T02980156  RH  044%=      5-min Rain = 0
KLBW 181525Z 19013G18KT 30/16 A2999 RMK A01 T03000155  RH  044%=      5-min Rain = 0
KLBW 181530Z 18014G20KT 30/16 A2999 RMK A01 T03010155  RH  043%=      5-min Rain = 0
KLBW 181535Z 19012G18KT 30/16 A2998 RMK A01 T03030155  RH  043%=      5-min Rain = 0
KLBW 181540Z 20013G19KT 31/16 A2998 RMK A01 T03050155  RH  042%=      5-min Rain = 0
KLBW 181545Z 19012G18KT 31/16 A2998 RMK A01 T03090156  RH  042%=      5-min Rain = 0
KLBW 181550Z 18012G17KT 31/16 A2998 RMK A01 T03120155  RH  041%=      5-min Rain = 0
KLBW 181555Z 19013G19KT 31/15 A2998 RMK A01 T03130153  RH  040%=      5-min Rain = 0
KLBW 181600Z 19013G18KT 31/15 A2998 RMK A01 T03140153  RH  039%=      5-min Rain = 0
KLBW 181605Z 20014G20KT 32/15 A2998 RMK A01 T03170152  RH  039%=      5-min Rain = 0
KLBW 181610Z 20013G18KT 32/15 A2998 RMK A01 T03170152  RH  039%=      5-min Rain = 0
KLBW 181615Z 20012G19KT 32/15 A2998 RMK A01 T03220153  RH  038%=      5-min Rain = 0
KLBW 181620Z 20012G18KT 32/15 A2998 RMK A01 T03210153  RH  038%=      5-min Rain = 0
KLBW 181625Z 19015G21KT 32/15 A2998 RMK A01 T03220151  RH  037%=      5-min Rain = 0
KLBW 181630Z 20015G21KT 32/15 A2998 RMK A01 T03230150  RH  037%=      5-min Rain = 0
KLBW 181635Z 20016KT 33/15 A2998 RMK A01 T03250149  RH  036%=      5-min Rain = 0
KLBW 181640Z 18014G22KT 33/15 A2998 RMK A01 T03280149  RH  036%=      5-min Rain = 0
KLBW 181645Z 19013G21KT 33/15 A2998 RMK A01 T03340151  RH  035%=      5-min Rain = 0
KLBW 181650Z 19015G20KT 33/15 A2998 RMK A01 T03300149  RH  035%=      5-min Rain = 0
KLBW 181655Z 20014KT 33/15 A2998 RMK A01 T03320150  RH  035%=      5-min Rain = 0
KLBW 181700Z 19014G21KT 34/15 A2998 RMK A01 T03380151  RH  034%=      5-min Rain = 0
KLBW 181705Z 20013G21KT 34/15 A2997 RMK A01 T03370151  RH  034%=      5-min Rain = 0
KLBW 181710Z 20012G18KT 34/15 A2997 RMK A01 T03400151  RH  034%=      5-min Rain = 0
KLBW 181715Z 20011G17KT 35/15 A2997 RMK A01 T03450151  RH  033%=      5-min Rain = 0
KLBW 181720Z 19014G20KT 34/15 A2997 RMK A01 T03420147  RH  032%=      5-min Rain = 0
KLBW 181725Z 20012G20KT 34/15 A2997 RMK A01 T03430150  RH  033%=      5-min Rain = 0
KLBW 181730Z 20015G22KT 34/15 A2997 RMK A01 T03440148  RH  032%=      5-min Rain = 0
KLBW 181735Z 19013G19KT 35/15 A2997 RMK A01 T03470147  RH  032%=      5-min Rain = 0
KLBW 181740Z 20013G18KT 35/15 A2997 RMK A01 T03470147  RH  032%=      5-min Rain = 0
KLBW 181745Z 21010G16KT 35/15 A2997 RMK A01 T03500148  RH  031%=      5-min Rain = 0
KLBW 181750Z 19011G16KT 36/15 A2997 RMK A01 T03550147  RH  030%=      5-min Rain = 0
KLBW 181755Z 19012G18KT 35/14 A2996 RMK A01 T03520144  RH  030%=      5-min Rain = 0
KLBW 181800Z 20011G17KT 36/14 A2996 RMK A01 T03550143  RH  029%=      5-min Rain = 0
KLBW 181805Z 20011G17KT 36/14 A2996 RMK A01 T03570143  RH  029%=      5-min Rain = 0
KLBW 181810Z 18013G21KT 36/14 A2996 RMK A01 T03570141  RH  029%=      5-min Rain = 0
KLBW 181815Z 21012G20KT 36/14 A2996 RMK A01 T03600141  RH  028%=      5-min Rain = 0
KLBW 181820Z 19011G17KT 36/14 A2996 RMK A01 T03590140  RH  028%=      5-min Rain = 0
KLBW 181825Z 19011G17KT 37/14 A2995 RMK A01 T03690141  RH  027%=      5-min Rain = 0
KLBW 181830Z 19011G17KT 36/14 A2995 RMK A01 T03640137  RH  027%=      5-min Rain = 0
KLBW 181835Z 20013G20KT 36/13 A2995 RMK A01 T03640133  RH  026%=      5-min Rain = 0
KLBW 181840Z 20011G16KT 37/13 A2995 RMK A01 T03660134  RH  026%=      5-min Rain = 0
KLBW 181845Z 19013G21KT 37/14 A2995 RMK A01 T03670135  RH  026%=      5-min Rain = 0
KLBW 181850Z 20013G20KT 37/13 A2995 RMK A01 T03670131  RH  025%=      5-min Rain = 0
KLBW 181855Z 21012G19KT 37/14 A2994 RMK A01 T03680136  RH  026%=      5-min Rain = 0
KLBW 181900Z 20013G21KT 37/13 A2994 RMK A01 T03720133  RH  025%=      5-min Rain = 0
KLBW 181905Z 19014G19KT 37/13 A2994 RMK A01 T03720130  RH  025%=      5-min Rain = 0
KLBW 181910Z 17014G21KT 37/13 A2994 RMK A01 T03700131  RH  025%=      5-min Rain = 0
KLBW 181915Z 18013G19KT 37/13 A2994 RMK A01 T03720131  RH  025%=      5-min Rain = 0
KLBW 181920Z 20014G20KT 37/13 A2993 RMK A01 T03730128  RH  024%=      5-min Rain = 0
KLBW 181925Z 17013G19KT 38/13 A2993 RMK A01 T03750128  RH  024%=      5-min Rain = 0
KLBW 181930Z 19013G19KT 38/13 A2993 RMK A01 T03780129  RH  024%=      5-min Rain = 0
KLBW 181935Z 19013KT 38/13 A2993 RMK A01 T03810128  RH  023%=      5-min Rain = 0
KLBW 181940Z 19013G18KT 38/13 A2993 RMK A01 T03820128  RH  023%=      5-min Rain = 0
KLBW 181945Z 16014G19KT 38/12 A2993 RMK A01 T03830123  RH  022%=      5-min Rain = 0
KLBW 181950Z 18013G19KT 38/12 A2992 RMK A01 T03800122  RH  022%=      5-min Rain = 0
KLBW 181955Z 17013G18KT 38/12 A2992 RMK A01 T03830121  RH  022%=      5-min Rain = 0
KLBW 182000Z 19012G19KT 38/12 A2992 RMK A01 T03840120  RH  021%=      5-min Rain = 0
KLBW 182005Z 20014G19KT 38/12 A2992 RMK A01 T03810120  RH  022%=      5-min Rain = 0
KLBW 182010Z 18013G19KT 38/12 A2992 RMK A01 T03840115  RH  021%=      5-min Rain = 0
KLBW 182015Z 20012G19KT 39/11 A2992 RMK A01 T03860109  RH  020%=      5-min Rain = 0
KLBW 182020Z 18012G18KT 39/11 A2992 RMK A01 T03850111  RH  020%=      5-min Rain = 0
KLBW 182025Z 17013G18KT 39/12 A2991 RMK A01 T03860119  RH  021%=      5-min Rain = 0
KLBW 182030Z 20013G20KT 39/11 A2991 RMK A01 T03850112  RH  020%=      5-min Rain = 0
KLBW 182035Z 18013G19KT 39/11 A2991 RMK A01 T03880113  RH  020%=      5-min Rain = 0
KLBW 182040Z 18013G19KT 39/12 A2991 RMK A01 T03890118  RH  021%=      5-min Rain = 0
KLBW 182045Z 18011G20KT 38/12 A2991 RMK A01 T03830121  RH  022%=      5-min Rain = 0
KLBW 182050Z 18015G20KT 39/12 A2991 RMK A01 T03890117  RH  020%=      5-min Rain = 0
KLBW 182055Z 20013G22KT 39/12 A2991 RMK A01 T03880116  RH  020%=      5-min Rain = 0
KLBW 182100Z 17016G21KT 39/12 A2991 RMK A01 T03870116  RH  021%=      5-min Rain = 0
KLBW 182105Z 18013G20KT 39/12 A299 RMK A01 T03880118  RH  021%=      5-min Rain = 0
KLBW 182110Z 18015G20KT 39/12 A299 RMK A01 T03860120  RH  021%=      5-min Rain = 0
KLBW 182115Z 17011G18KT 39/12 A299 RMK A01 T03900117  RH  020%=      5-min Rain = 0
KLBW 182120Z 17012G19KT 39/12 A299 RMK A01 T03930120  RH  020%=      5-min Rain = 0
KLBW 182125Z 17016G23KT 39/12 A299 RMK A01 T03880116  RH  020%=      5-min Rain = 0
KLBW 182130Z 18014G19KT 39/12 A299 RMK A01 T03870116  RH  021%=      5-min Rain = 0
KLBW 182135Z 19013G19KT 39/12 A299 RMK A01 T03890120  RH  021%=      5-min Rain = 0
KLBW 182140Z 18016G21KT 39/12 A299 RMK A01 T03850120  RH  021%=      5-min Rain = 0
KLBW 182145Z 17013G20KT 39/12 A2989 RMK A01 T03860121  RH  021%=      5-min Rain = 0
KLBW 182150Z 18015G23KT 39/12 A299 RMK A01 T03850121  RH  021%=      5-min Rain = 0
KLBW 182155Z 18013G18KT 38/12 A299 RMK A01 T03830124  RH  022%=      5-min Rain = 0
KLBW 182200Z 18015G20KT 38/12 A2989 RMK A01 T03830124  RH  022%=      5-min Rain = 0
KLBW 182205Z 18014G19KT 38/13 A2989 RMK A01 T03840125  RH  022%=      5-min Rain = 0
KLBW 182210Z 18014G20KT 38/12 A2989 RMK A01 T03810123  RH  022%=      5-min Rain = 0
KLBW 182215Z 18015G23KT 38/12 A2989 RMK A01 T03790124  RH  023%=      5-min Rain = 0
KLBW 182220Z 18014G19KT 38/13 A2989 RMK A01 T03800126  RH  023%=      5-min Rain = 0
KLBW 182225Z 18013G19KT 38/13 A2989 RMK A01 T03810127  RH  023%=      5-min Rain = 0
KLBW 182230Z 17013G18KT 38/13 A2989 RMK A01 T03830126  RH  022%=      5-min Rain = 0
KLBW 182235Z 17013G18KT 38/13 A2988 RMK A01 T03810126  RH  023%=      5-min Rain = 0
KLBW 182240Z 18014G22KT 38/13 A2988 RMK A01 T03800126  RH  023%=      5-min Rain = 0
KLBW 182245Z 18011G18KT 38/13 A2988 RMK A01 T03790126  RH  023%=      5-min Rain = 0
KLBW 182250Z 19014G22KT 38/13 A2988 RMK A01 T03810126  RH  023%=      5-min Rain = 0
KLBW 182255Z 19014G22KT 38/13 A2988 RMK A01 T03750125  RH  023%=      5-min Rain = 0
KLBW 182300Z 17014G20KT 38/13 A2988 RMK A01 T03770125  RH  023%=      5-min Rain = 0
KLBW 182305Z 17015G21KT 37/12 A2988 RMK A01 T03740123  RH  023%=      5-min Rain = 0
KLBW 182310Z 16013G20KT 37/12 A2988 RMK A01 T03740124  RH  023%=      5-min Rain = 0
KLBW 182315Z 17014G21KT 38/12 A2988 RMK A01 T03750123  RH  023%=      5-min Rain = 0
KLBW 182320Z 18013G19KT 38/12 A2988 RMK A01 T03750123  RH  023%=      5-min Rain = 0
KLBW 182325Z 18013G23KT 37/12 A2987 RMK A01 T03730124  RH  024%=      5-min Rain = 0
KLBW 182330Z 18014G20KT 37/12 A2987 RMK A01 T03710122  RH  023%=      5-min Rain = 0
KLBW 182335Z 17012KT 37/12 A2987 RMK A01 T03710123  RH  024%=      5-min Rain = 0
KLBW 182340Z 17013G20KT 37/13 A2987 RMK A01 T03720125  RH  024%=      5-min Rain = 0
KLBW 182345Z 16014G20KT 37/12 A2987 RMK A01 T03710124  RH  024%=      5-min Rain = 0
KLBW 182350Z 17011G18KT 37/12 A2987 RMK A01 T03710124  RH  024%=      5-min Rain = 0
KLBW 182355Z 17012G19KT 37/12 A2987 RMK A01 T03700123  RH  024%=      5-min Rain = 0
KLBW 190000Z 17013G19KT 37/12 A2987 RMK A01 T03690123  RH  024%=      5-min Rain = 0
KLBW 190005Z 17013G19KT 37/12 A2987 RMK A01 T03670121  RH  024%=      5-min Rain = 0
KLBW 190010Z 19013G18KT 37/12 A2987 RMK A01 T03660123  RH  024%=      5-min Rain = 0
KLBW 190015Z 18012G20KT 37/12 A2987 RMK A01 T03660122  RH  024%=      5-min Rain = 0
KLBW 190020Z 18012KT 36/12 A2987 RMK A01 T03640122  RH  024%=      5-min Rain = 0
KLBW 190025Z 17010G15KT 37/13 A2987 RMK A01 T03650126  RH  025%=      5-min Rain = 0
KLBW 190030Z 17011G17KT 37/13 A2987 RMK A01 T03650126  RH  025%=      5-min Rain = 0
KLBW 190035Z 17013G18KT 36/12 A2987 RMK A01 T03610123  RH  025%=      5-min Rain = 0
KLBW 190040Z 18012G18KT 36/12 A2987 RMK A01 T03600121  RH  025%=      5-min Rain = 0
KLBW 190045Z 18013G19KT 36/12 A2987 RMK A01 T03580122  RH  025%=      5-min Rain = 0
KLBW 190050Z 17012G19KT 36/12 A2987 RMK A01 T03580122  RH  025%=      5-min Rain = 0
KLBW 190055Z 17014G19KT 36/12 A2987 RMK A01 T03560119  RH  025%=      5-min Rain = 0
KLBW 190100Z 17013G18KT 36/12 A2987 RMK A01 T03550120  RH  025%=      5-min Rain = 0
KLBW 190105Z 16015KT 35/12 A2987 RMK A01 T03530120  RH  026%=      5-min Rain = 0
KLBW 190110Z 17011G16KT 35/12 A2987 RMK A01 T03510121  RH  026%=      5-min Rain = 0
KLBW 190115Z 17012G18KT 35/12 A2988 RMK A01 T03500121  RH  026%=      5-min Rain = 0
KLBW 190120Z 17012G19KT 35/12 A2988 RMK A01 T03480120  RH  026%=      5-min Rain = 0
KLBW 190125Z 17013G21KT 35/12 A2988 RMK A01 T03460119  RH  026%=      5-min Rain = 0
KLBW 190130Z 17013G19KT 35/12 A2988 RMK A01 T03450119  RH  026%=      5-min Rain = 0
KLBW 190135Z 17012G18KT 34/12 A2988 RMK A01 T03430119  RH  027%=      5-min Rain = 0
KLBW 190140Z 17012G20KT 34/12 A2988 RMK A01 T03410119  RH  027%=      5-min Rain = 0
KLBW 190145Z 17013G20KT 34/12 A2988 RMK A01 T03400119  RH  027%=      5-min Rain = 0
KLBW 190150Z 17012KT 34/12 A2988 RMK A01 T03390119  RH  027%=      5-min Rain = 0
KLBW 190155Z 17011KT 34/12 A2988 RMK A01 T03380120  RH  028%=      5-min Rain = 0
KLBW 190200Z 17012KT 34/12 A2988 RMK A01 T03360120  RH  028%=      5-min Rain = 0
KLBW 190205Z 17011G17KT 34/12 A2988 RMK A01 T03350121  RH  028%=      5-min Rain = 0
KLBW 190210Z 17011G18KT 33/12 A2988 RMK A01 T03340121  RH  029%=      5-min Rain = 0
KLBW 190215Z 17012G19KT 33/12 A2989 RMK A01 T03340121  RH  029%=      5-min Rain = 0
KLBW 190220Z 17011G17KT 33/12 A2989 RMK A01 T03320121  RH  029%=      5-min Rain = 0
KLBW 190225Z 16011G17KT 33/12 A2988 RMK A01 T03310122  RH  029%=      5-min Rain = 0
KLBW 190230Z 17012G18KT 33/12 A2989 RMK A01 T03300121  RH  029%=      5-min Rain = 0
KLBW 190235Z 16010KT 33/12 A2989 RMK A01 T03290121  RH  029%=      5-min Rain = 0
KLBW 190240Z 16011G16KT 33/12 A2989 RMK A01 T03280121  RH  030%=      5-min Rain = 0
KLBW 190245Z 16010G15KT 33/12 A2989 RMK A01 T03280121  RH  030%=      5-min Rain = 0
KLBW 190250Z 16010G17KT 33/12 A2989 RMK A01 T03260122  RH  030%=      5-min Rain = 0
KLBW 190255Z 16011G17KT 33/12 A2989 RMK A01 T03260121  RH  030%=      5-min Rain = 0
KLBW 190300Z 16012G18KT 32/12 A2989 RMK A01 T03240121  RH  030%=      5-min Rain = 0
KLBW 190305Z 16011G16KT 32/12 A2989 RMK A01 T03240122  RH  030%=      5-min Rain = 0
KLBW 190310Z 16012G18KT 32/12 A2989 RMK A01 T03220122  RH  031%=      5-min Rain = 0
KLBW 190315Z 16011G17KT 32/12 A2989 RMK A01 T03220122  RH  031%=      5-min Rain = 0
KLBW 190320Z 17012KT 32/12 A299 RMK A01 T03200122  RH  031%=      5-min Rain = 0
KLBW 190325Z 16012KT 32/12 A299 RMK A01 T03210122  RH  031%=      5-min Rain = 0
KLBW 190330Z 17012G18KT 32/12 A299 RMK A01 T03200122  RH  031%=      5-min Rain = 0
KLBW 190335Z 17011G18KT 32/12 A2991 RMK A01 T03190122  RH  031%=      5-min Rain = 0
KLBW 190340Z 17012G18KT 32/12 A2991 RMK A01 T03180123  RH  031%=      5-min Rain = 0
KLBW 190345Z 17012G18KT 32/12 A2991 RMK A01 T03170123  RH  032%=      5-min Rain = 0
KLBW 190350Z 16011G17KT 32/13 A2991 RMK A01 T03150125  RH  033%=      5-min Rain = 0
KLBW 190355Z 17012G18KT 31/13 A2991 RMK A01 T03130126  RH  033%=      5-min Rain = 0
KLBW 190400Z 17012G17KT 31/13 A2991 RMK A01 T03130128  RH  034%=      5-min Rain = 0
KLBW 190405Z 17012G17KT 31/13 A2991 RMK A01 T03110129  RH  034%=      5-min Rain = 0
KLBW 190410Z 16010G16KT 31/13 A2992 RMK A01 T03100130  RH  035%=      5-min Rain = 0
KLBW 190415Z 17012G17KT 31/13 A2992 RMK A01 T03090132  RH  035%=      5-min Rain = 0
KLBW 190420Z 17011G16KT 31/13 A2992 RMK A01 T03080134  RH  036%=      5-min Rain = 0
KLBW 190425Z 17013G19KT 31/14 A2992 RMK A01 T03080136  RH  037%=      5-min Rain = 0
KLBW 190430Z 17013G18KT 31/14 A2992 RMK A01 T03070138  RH  037%=      5-min Rain = 0
KLBW 190435Z 17012G17KT 31/14 A2993 RMK A01 T03060139  RH  038%=      5-min Rain = 0
KLBW 190440Z 17014G20KT 31/14 A2993 RMK A01 T03060140  RH  038%=      5-min Rain = 0
KLBW 190445Z 17013G18KT 31/14 A2993 RMK A01 T03050140  RH  038%=      5-min Rain = 0
KLBW 190450Z 17014G22KT 30/14 A2993 RMK A01 T03040141  RH  039%=      5-min Rain = 0
KLBW 190455Z 17011G17KT 30/14 A2993 RMK A01 T03030141  RH  039%=      5-min Rain = 0

Page generated in 0.0172 seconds.